createdAt,value
2023-11-25T00:00:47.478Z,99808.00
2023-11-25T00:03:14.631Z,99822.22
2023-11-25T00:05:41.750Z,99825.00
2023-11-25T00:08:08.543Z,99833.72
2023-11-25T00:10:35.565Z,99830.94
2023-11-25T00:13:02.622Z,99833.94
2023-11-25T00:15:29.472Z,99830.00
2023-11-25T00:17:56.716Z,99831.69
2023-11-25T00:20:24.625Z,99850.69
2023-11-25T00:22:51.047Z,99862.22
2023-11-25T00:25:19.664Z,99838.38
2023-11-25T00:27:47.470Z,99841.75
2023-11-25T00:30:15.304Z,99840.66
2023-11-25T00:32:42.379Z,99844.66
2023-11-25T00:35:09.826Z,99845.13
2023-11-25T00:37:36.794Z,99868.31
2023-11-25T00:40:10.754Z,99855.13
2023-11-25T00:42:41.186Z,99857.63
2023-11-25T00:45:11.185Z,99848.78
2023-11-25T00:47:41.067Z,99854.84
2023-11-25T00:50:17.174Z,99855.56
2023-11-25T00:52:43.948Z,99850.44
2023-11-25T00:55:11.552Z,99866.72
2023-11-25T00:57:38.669Z,99847.31
2023-11-25T01:00:06.297Z,99862.09
2023-11-25T01:02:33.182Z,99872.94
2023-11-25T01:04:59.692Z,99866.84
2023-11-25T01:07:26.071Z,99878.13
2023-11-25T01:09:52.473Z,99846.44
2023-11-25T01:12:18.884Z,99861.38
2023-11-25T01:14:45.274Z,99864.94
2023-11-25T01:17:11.985Z,99876.28
2023-11-25T01:19:38.770Z,99884.81
2023-11-25T01:22:05.747Z,99875.31
2023-11-25T01:24:32.275Z,99880.44
2023-11-25T01:26:59.251Z,99892.19
2023-11-25T01:29:25.824Z,99888.50
2023-11-25T01:31:52.222Z,99890.88
2023-11-25T01:34:18.686Z,99897.00
2023-11-25T01:36:45.117Z,99886.00
2023-11-25T01:39:11.589Z,99894.88
2023-11-25T01:41:37.937Z,99890.28
2023-11-25T01:44:04.519Z,99888.56
2023-11-25T01:46:39.943Z,99900.25
2023-11-25T01:49:11.789Z,99905.44
2023-11-25T01:51:43.818Z,99907.09
2023-11-25T01:54:17.873Z,99910.78
2023-11-25T01:56:47.382Z,99920.53
2023-11-25T01:59:16.524Z,99916.28
2023-11-25T02:01:45.031Z,99923.31
2023-11-25T02:04:11.760Z,99924.84
2023-11-25T02:06:38.383Z,99930.13
2023-11-25T02:09:04.759Z,99937.81
2023-11-25T02:11:31.074Z,99938.41
2023-11-25T02:13:57.458Z,99950.63
2023-11-25T02:16:24.376Z,99952.66
2023-11-25T02:18:52.555Z,99956.97
2023-11-25T02:21:19.316Z,99958.72
2023-11-25T02:23:45.685Z,99965.28
2023-11-25T02:26:12.119Z,99980.03
2023-11-25T02:28:39.701Z,99977.75
2023-11-25T02:31:06.922Z,99982.00
2023-11-25T02:33:35.734Z,99961.16
2023-11-25T02:36:02.379Z,99976.03
2023-11-25T02:38:29.078Z,99982.88
2023-11-25T02:40:55.793Z,99989.94
2023-11-25T02:43:22.728Z,99992.84
2023-11-25T02:45:49.272Z,100009.34
2023-11-25T02:48:17.454Z,100008.03
2023-11-25T02:50:44.910Z,99997.94
2023-11-25T02:53:11.257Z,100008.00
2023-11-25T02:55:37.597Z,99998.28
2023-11-25T02:58:04.015Z,100005.38
2023-11-25T03:00:30.510Z,99982.78
2023-11-25T03:03:08.742Z,99986.84
2023-11-25T03:05:36.242Z,99977.69
2023-11-25T03:08:02.623Z,99985.03
2023-11-25T03:10:29.022Z,99975.97
2023-11-25T03:12:55.404Z,99973.41
2023-11-25T03:15:21.760Z,100003.41
2023-11-25T03:17:48.273Z,100006.09
2023-11-25T03:20:14.735Z,100008.00
2023-11-25T03:22:41.124Z,100008.72
2023-11-25T03:25:08.071Z,100021.91
2023-11-25T03:27:36.364Z,100028.84
2023-11-25T03:30:09.191Z,100028.03
2023-11-25T03:32:35.973Z,100038.59
2023-11-25T03:35:02.460Z,100043.16
2023-11-25T03:37:28.890Z,100044.06
2023-11-25T03:39:55.224Z,100032.66
2023-11-25T03:42:21.590Z,100035.63
2023-11-25T03:44:48.450Z,100048.09
2023-11-25T03:47:15.033Z,100030.44
2023-11-25T03:49:41.627Z,100025.75
2023-11-25T03:52:08.137Z,100036.41
2023-11-25T03:54:34.613Z,100036.53
2023-11-25T03:57:00.979Z,100032.59
2023-11-25T03:59:27.417Z,100031.53
2023-11-25T04:01:54.305Z,100040.25
2023-11-25T04:04:20.896Z,100040.50
2023-11-25T04:06:48.056Z,100042.88
2023-11-25T04:09:14.822Z,100033.19
2023-11-25T04:11:44.191Z,100036.75
2023-11-25T04:14:10.786Z,100041.22
2023-11-25T04:16:37.262Z,100037.88
2023-11-25T04:19:04.684Z,100038.22
2023-11-25T04:21:31.418Z,100038.25
2023-11-25T04:23:57.853Z,100043.38
2023-11-25T04:26:25.759Z,100040.78
2023-11-25T04:28:52.394Z,100043.38
2023-11-25T04:31:19.011Z,100051.13
2023-11-25T04:33:45.767Z,100063.53
2023-11-25T04:36:12.809Z,100060.09
2023-11-25T04:38:40.723Z,100055.81
2023-11-25T04:41:07.181Z,100048.66
2023-11-25T04:43:33.588Z,100044.22
2023-11-25T04:46:03.202Z,100048.78
2023-11-25T04:48:29.780Z,100052.25
2023-11-25T04:50:56.397Z,100035.47
2023-11-25T04:53:22.960Z,100046.28
2023-11-25T04:55:49.797Z,100050.84
2023-11-25T04:58:16.381Z,100055.25
2023-11-25T05:00:42.807Z,100049.97
2023-11-25T05:03:10.500Z,100046.56
2023-11-25T05:05:37.006Z,100049.19
2023-11-25T05:08:05.613Z,100056.97
2023-11-25T05:10:32.269Z,100055.41
2023-11-25T05:12:58.870Z,100059.00
2023-11-25T05:15:26.419Z,100040.59
2023-11-25T05:17:56.019Z,100041.09
2023-11-25T05:20:22.730Z,100047.44
2023-11-25T05:22:49.330Z,100059.00
2023-11-25T05:25:16.778Z,100044.78
2023-11-25T05:27:44.021Z,100054.41
2023-11-25T05:30:14.981Z,100051.78
2023-11-25T05:32:43.887Z,100057.16
2023-11-25T05:35:11.659Z,100055.50
2023-11-25T05:37:38.145Z,100057.34
2023-11-25T05:40:07.623Z,100063.56
2023-11-25T05:42:38.005Z,100057.50
2023-11-25T05:45:12.333Z,100047.16
2023-11-25T05:47:38.724Z,100050.66
2023-11-25T05:50:06.863Z,100049.88
2023-11-25T05:52:33.726Z,100058.44
2023-11-25T05:55:00.187Z,100051.50
2023-11-25T05:57:26.675Z,100049.50
2023-11-25T05:59:53.450Z,100049.66
2023-11-25T06:02:19.884Z,100049.59
2023-11-25T06:04:46.279Z,100055.00
2023-11-25T06:07:12.819Z,100055.78
2023-11-25T06:09:39.363Z,100055.09
2023-11-25T06:12:06.193Z,100052.75
2023-11-25T06:14:37.243Z,100057.06
2023-11-25T06:17:05.267Z,100056.06
2023-11-25T06:19:32.395Z,100048.25
2023-11-25T06:21:59.549Z,100050.81
2023-11-25T06:24:26.439Z,100047.47
2023-11-25T06:26:54.511Z,100040.47
2023-11-25T06:29:20.979Z,100046.53
2023-11-25T06:31:47.721Z,100046.69
2023-11-25T06:34:14.373Z,100045.63
2023-11-25T06:36:41.115Z,100044.81
2023-11-25T06:39:08.870Z,100061.41
2023-11-25T06:41:35.387Z,100059.78
2023-11-25T06:44:02.597Z,100060.66
2023-11-25T06:46:29.268Z,100064.19
2023-11-25T06:48:55.717Z,100064.38
2023-11-25T06:51:22.261Z,100064.19
2023-11-25T06:53:48.645Z,100058.88
2023-11-25T06:56:17.874Z,100057.88
2023-11-25T06:58:44.383Z,100058.78
2023-11-25T07:01:17.536Z,100067.47
2023-11-25T07:03:44.084Z,100060.44
2023-11-25T07:06:10.595Z,100050.81
2023-11-25T07:08:36.996Z,100056.09
2023-11-25T07:11:06.210Z,100045.78
2023-11-25T07:13:33.346Z,100044.28
2023-11-25T07:16:01.973Z,100042.66
2023-11-25T07:18:28.320Z,100044.59
2023-11-25T07:20:56.602Z,100049.03
2023-11-25T07:23:23.622Z,100052.59
2023-11-25T07:25:50.193Z,100049.31
2023-11-25T07:28:17.191Z,100051.28
2023-11-25T07:30:44.411Z,100046.06
2023-11-25T07:33:11.200Z,100046.06
2023-11-25T07:35:38.164Z,100045.31
2023-11-25T07:38:04.551Z,100051.44
2023-11-25T07:40:30.959Z,100054.00
2023-11-25T07:42:57.387Z,100048.00
2023-11-25T07:45:23.741Z,100053.38
2023-11-25T07:47:50.136Z,100060.16
2023-11-25T07:50:17.196Z,100061.94
2023-11-25T07:52:43.672Z,100047.00
2023-11-25T07:55:10.596Z,100057.63
2023-11-25T07:57:38.107Z,100052.38
2023-11-25T08:00:07.721Z,100058.63
2023-11-25T08:02:34.328Z,100056.84
2023-11-25T08:05:01.244Z,100051.59
2023-11-25T08:07:28.124Z,100050.91
2023-11-25T08:09:54.546Z,100056.06
2023-11-25T08:12:20.901Z,100038.81
2023-11-25T08:14:48.295Z,100042.72
2023-11-25T08:17:15.372Z,100031.50
2023-11-25T08:19:41.828Z,100040.34
2023-11-25T08:22:08.243Z,100031.00
2023-11-25T08:24:35.626Z,100036.28
2023-11-25T08:27:02.066Z,100040.72
2023-11-25T08:29:28.440Z,100037.28
2023-11-25T08:31:54.960Z,100040.72
2023-11-25T08:34:21.449Z,100049.31
2023-11-25T08:36:55.390Z,100041.72
2023-11-25T08:39:23.390Z,100035.13
2023-11-25T08:41:51.440Z,100040.41
2023-11-25T08:44:17.828Z,100042.16
2023-11-25T08:46:44.587Z,100042.25
2023-11-25T08:49:14.225Z,100024.19
2023-11-25T08:51:42.026Z,100044.47
2023-11-25T08:54:09.307Z,100033.75
2023-11-25T08:56:37.253Z,100034.41
2023-11-25T08:59:06.807Z,100042.16
2023-11-25T09:01:40.538Z,100042.91
2023-11-25T09:04:10.969Z,100046.94
2023-11-25T09:06:38.272Z,100041.03
2023-11-25T09:09:10.521Z,100045.81
2023-11-25T09:11:37.810Z,100042.91
2023-11-25T09:14:05.578Z,100048.69
2023-11-25T09:16:32.250Z,100045.09
2023-11-25T09:19:00.618Z,100044.66
2023-11-25T09:21:27.546Z,100045.91
2023-11-25T09:23:56.089Z,100032.81
2023-11-25T09:26:25.520Z,100044.41
2023-11-25T09:28:53.915Z,100037.34
2023-11-25T09:31:20.445Z,100039.09
2023-11-25T09:33:48.094Z,100043.19
2023-11-25T09:36:14.705Z,100049.00
2023-11-25T09:38:41.070Z,100041.16
2023-11-25T09:41:07.698Z,100048.19
2023-11-25T09:43:35.544Z,100037.00
2023-11-25T09:46:02.720Z,100036.59
2023-11-25T09:48:29.289Z,100030.72
2023-11-25T09:50:55.679Z,100031.53
2023-11-25T09:53:28.390Z,100035.50
2023-11-25T09:56:06.298Z,100031.31
2023-11-25T09:58:34.725Z,100032.84
2023-11-25T10:01:01.459Z,100029.81
2023-11-25T10:03:34.260Z,100019.06
2023-11-25T10:06:02.137Z,100014.38
2023-11-25T10:08:28.484Z,100026.31
2023-11-25T10:11:02.635Z,100025.72
2023-11-25T10:13:35.015Z,100030.47
2023-11-25T10:16:05.314Z,100033.50
2023-11-25T10:18:31.897Z,100033.88
2023-11-25T10:20:59.338Z,100031.88
2023-11-25T10:23:27.104Z,100034.03
2023-11-25T10:25:54.328Z,100031.88
2023-11-25T10:28:27.065Z,100028.28
2023-11-25T10:30:57.705Z,100021.47
2023-11-25T10:33:25.318Z,100011.47
2023-11-25T10:35:53.437Z,100017.63
2023-11-25T10:38:23.105Z,100010.72
2023-11-25T10:40:50.206Z,100006.97
2023-11-25T10:43:17.344Z,100002.03
2023-11-25T10:45:44.111Z,99998.25
2023-11-25T10:48:12.626Z,99996.28
2023-11-25T10:50:43.692Z,99983.63
2023-11-25T10:53:17.021Z,99984.09
2023-11-25T10:55:44.790Z,99976.97
2023-11-25T10:58:12.562Z,99966.13
2023-11-25T11:00:39.049Z,99964.78
2023-11-25T11:03:09.971Z,99964.16
2023-11-25T11:05:50.345Z,99963.84
2023-11-25T11:08:20.330Z,99961.19
2023-11-25T11:11:00.268Z,99958.72
2023-11-25T11:13:36.548Z,99959.34
2023-11-25T11:16:10.265Z,99951.56
2023-11-25T11:18:40.353Z,99947.25
2023-11-25T11:21:07.799Z,99944.69
2023-11-25T11:23:38.348Z,99937.47
2023-11-25T11:26:35.922Z,99932.63
2023-11-25T11:29:31.358Z,99921.41
2023-11-25T11:32:03.180Z,99914.53
2023-11-25T11:36:57.567Z,99910.28
2023-11-25T11:39:43.151Z,99924.16
2023-11-25T11:42:28.452Z,99919.47
2023-11-25T11:45:18.361Z,99913.75
2023-11-25T11:47:47.303Z,99909.19
2023-11-25T11:50:28.020Z,99916.28
2023-11-25T11:53:00.384Z,99918.91
2023-11-25T11:55:37.291Z,99920.53
2023-11-25T11:58:10.980Z,99914.44
2023-11-25T12:00:47.918Z,99917.19
2023-11-25T12:03:19.179Z,99913.72
2023-11-25T12:05:46.016Z,99908.34
2023-11-25T12:08:12.949Z,99910.88
2023-11-25T12:10:40.335Z,99905.66
2023-11-25T12:13:06.831Z,99905.66
2023-11-25T12:15:33.220Z,99901.69
2023-11-25T12:18:01.359Z,99905.56
2023-11-25T12:20:28.713Z,99901.31
2023-11-25T12:22:57.083Z,99896.28
2023-11-25T12:25:27.585Z,99894.81
2023-11-25T12:28:06.253Z,99893.78
2023-11-25T12:30:32.620Z,99888.41
2023-11-25T12:32:59.081Z,99885.88
2023-11-25T12:35:26.003Z,99882.63
2023-11-25T12:38:04.853Z,99884.97
2023-11-25T12:40:38.615Z,99874.38
2023-11-25T12:43:09.246Z,99870.50
2023-11-25T12:45:44.466Z,99880.09
2023-11-25T12:48:13.952Z,99873.63
2023-11-25T12:51:06.296Z,99868.91
2023-11-25T12:53:32.944Z,99871.34
2023-11-25T12:56:00.685Z,99877.69
2023-11-25T12:58:27.489Z,99873.31
2023-11-25T13:00:58.874Z,99879.22
2023-11-25T13:03:27.447Z,99884.03
2023-11-25T13:06:07.015Z,99877.38
2023-11-25T13:08:37.864Z,99889.16
2023-11-25T13:11:05.994Z,99875.53
2023-11-25T13:13:33.610Z,99865.63
2023-11-25T13:16:01.187Z,99854.19
2023-11-25T13:18:28.440Z,99852.72
2023-11-25T13:20:56.475Z,99853.69
2023-11-25T13:23:23.043Z,99862.78
2023-11-25T13:25:50.936Z,99851.72
2023-11-25T13:28:17.375Z,99848.66
2023-11-25T13:30:43.749Z,99854.50
2023-11-25T13:33:13.204Z,99853.97
2023-11-25T13:35:39.601Z,99850.47
2023-11-25T13:38:09.769Z,99854.31
2023-11-25T13:40:38.795Z,99854.34
2023-11-25T13:43:16.878Z,99856.00
2023-11-25T13:45:43.993Z,99845.59
2023-11-25T13:48:13.058Z,99842.75
2023-11-25T13:50:39.505Z,99842.75
2023-11-25T13:53:08.528Z,99845.38
2023-11-25T13:55:44.354Z,99835.50
2023-11-25T13:58:11.226Z,99842.25
2023-11-25T14:00:38.300Z,99837.69
2023-11-25T14:03:10.834Z,99844.47
2023-11-25T14:05:39.211Z,99837.78
2023-11-25T14:08:09.323Z,99834.06
2023-11-25T14:10:38.485Z,99837.56
2023-11-25T14:13:09.755Z,99841.19
2023-11-25T14:15:36.455Z,99838.91
2023-11-25T14:18:03.013Z,99845.19
2023-11-25T14:20:29.974Z,99839.06
2023-11-25T14:22:57.448Z,99840.91
2023-11-25T14:25:24.930Z,99853.91
2023-11-25T14:27:51.441Z,99840.66
2023-11-25T14:30:23.898Z,99850.06
2023-11-25T14:32:51.329Z,99864.88
2023-11-25T14:35:18.114Z,99859.47
2023-11-25T14:37:45.415Z,99849.88
2023-11-25T14:40:15.580Z,99849.84
2023-11-25T14:42:42.847Z,99850.78
2023-11-25T14:45:09.570Z,99851.88
2023-11-25T14:47:36.035Z,99843.72
2023-11-25T14:50:03.562Z,99848.06
2023-11-25T14:52:32.941Z,99847.72
2023-11-25T14:54:59.934Z,99831.44
2023-11-25T14:57:28.535Z,99840.00
2023-11-25T14:59:55.460Z,99839.72
2023-11-25T15:02:22.204Z,99851.91
2023-11-25T15:04:49.068Z,99845.66
2023-11-25T15:07:15.878Z,99854.19
2023-11-25T15:09:43.914Z,99860.25
2023-11-25T15:12:11.333Z,99860.09
2023-11-25T15:14:38.642Z,99847.66
2023-11-25T15:17:07.438Z,99856.28
2023-11-25T15:19:36.475Z,99853.44
2023-11-25T15:22:02.975Z,99858.63
2023-11-25T15:24:29.387Z,99850.63
2023-11-25T15:26:56.081Z,99847.91
2023-11-25T15:29:23.491Z,99841.25
2023-11-25T15:31:52.203Z,99851.59
2023-11-25T15:34:18.891Z,99844.44
2023-11-25T15:36:45.678Z,99850.47
2023-11-25T15:39:17.706Z,99850.56
2023-11-25T15:41:47.198Z,99851.59
2023-11-25T15:44:13.937Z,99846.41
2023-11-25T15:46:41.371Z,99843.75
2023-11-25T15:49:09.201Z,99842.19
2023-11-25T15:51:36.516Z,99855.69
2023-11-25T15:54:02.912Z,99854.69
2023-11-25T15:56:29.344Z,99861.00
2023-11-25T15:59:00.012Z,99861.09
2023-11-25T16:01:26.919Z,99851.56
2023-11-25T16:03:53.691Z,99856.13
2023-11-25T16:06:20.178Z,99846.44
2023-11-25T16:08:46.571Z,99864.13
2023-11-25T16:11:13.501Z,99857.75
2023-11-25T16:13:39.888Z,99861.16
2023-11-25T16:16:06.737Z,99856.72
2023-11-25T16:18:34.218Z,99872.13
2023-11-25T16:21:01.425Z,99870.09
2023-11-25T16:23:28.938Z,99876.16
2023-11-25T16:25:55.413Z,99869.88
2023-11-25T16:28:22.280Z,99879.28
2023-11-25T16:30:48.973Z,99880.00
2023-11-25T16:33:15.606Z,99875.56
2023-11-25T16:35:42.873Z,99886.84
2023-11-25T16:38:09.528Z,99896.56
2023-11-25T16:40:36.064Z,99893.81
2023-11-25T16:43:04.304Z,99894.72
2023-11-25T16:45:33.179Z,99898.25
2023-11-25T16:48:01.335Z,99896.47
2023-11-25T16:50:29.274Z,99895.91
2023-11-25T16:52:55.934Z,99901.41
2023-11-25T16:55:22.371Z,99895.44
2023-11-25T16:57:48.737Z,99902.81
2023-11-25T17:00:17.430Z,99903.78
2023-11-25T17:02:44.956Z,99906.41
2023-11-25T17:05:11.711Z,99904.09
2023-11-25T17:07:38.357Z,99908.56
2023-11-25T17:10:05.510Z,99907.63
2023-11-25T17:12:32.540Z,99919.09
2023-11-25T17:14:59.392Z,99914.06
2023-11-25T17:17:26.663Z,99909.00
2023-11-25T17:19:53.501Z,99925.00
2023-11-25T17:22:19.853Z,99920.72
2023-11-25T17:24:46.377Z,99920.53
2023-11-25T17:27:12.757Z,99912.19
2023-11-25T17:29:39.309Z,99921.34
2023-11-25T17:32:07.147Z,99910.41
2023-11-25T17:34:34.227Z,99911.72
2023-11-25T17:37:01.518Z,99913.03
2023-11-25T17:39:28.376Z,99916.59
2023-11-25T17:41:54.810Z,99921.59
2023-11-25T17:44:22.724Z,99928.00
2023-11-25T17:46:50.031Z,99931.63
2023-11-25T17:49:17.369Z,99938.88
2023-11-25T17:51:43.751Z,99935.66
2023-11-25T17:54:11.952Z,99945.44
2023-11-25T17:56:38.468Z,99940.34
2023-11-25T17:59:04.985Z,99941.97
2023-11-25T18:01:31.527Z,99949.13
2023-11-25T18:03:58.145Z,99943.88
2023-11-25T18:06:25.195Z,99937.06
2023-11-25T18:08:51.559Z,99939.69
2023-11-25T18:11:17.939Z,99938.97
2023-11-25T18:13:44.833Z,99939.81
2023-11-25T18:16:11.536Z,99948.72
2023-11-25T18:18:39.542Z,99940.91
2023-11-25T18:21:07.120Z,99949.59
2023-11-25T18:23:33.819Z,99941.78
2023-11-25T18:26:00.375Z,99943.56
2023-11-25T18:28:26.739Z,99939.31
2023-11-25T18:30:53.180Z,99950.81
2023-11-25T18:33:19.680Z,99950.91
2023-11-25T18:35:46.069Z,99960.66
2023-11-25T18:38:12.504Z,99958.91
2023-11-25T18:40:38.990Z,99962.38
2023-11-25T18:43:05.456Z,99958.88
2023-11-25T18:45:31.825Z,99956.06
2023-11-25T18:47:58.217Z,99969.25
2023-11-25T18:50:28.430Z,99967.50
2023-11-25T18:52:55.485Z,99979.59
2023-11-25T18:55:21.862Z,99984.00
2023-11-25T18:57:48.249Z,99984.25
2023-11-25T19:00:14.702Z,99994.78
2023-11-25T19:02:41.719Z,100007.16
2023-11-25T19:05:09.037Z,100013.59
2023-11-25T19:07:36.487Z,100029.31
2023-11-25T19:10:03.680Z,100018.91
2023-11-25T19:12:30.153Z,100021.50
2023-11-25T19:14:56.670Z,100028.00
2023-11-25T19:17:23.349Z,100045.94
2023-11-25T19:19:49.781Z,100059.63
2023-11-25T19:22:16.142Z,100072.50
2023-11-25T19:24:42.543Z,100071.94
2023-11-25T19:27:09.323Z,100083.81
2023-11-25T19:29:42.192Z,100078.25
2023-11-25T19:32:10.083Z,100081.38
2023-11-25T19:34:36.744Z,100087.31
2023-11-25T19:37:03.507Z,100078.41
2023-11-25T19:39:30.157Z,100083.44
2023-11-25T19:41:56.659Z,100077.16
2023-11-25T19:44:23.073Z,100076.25
2023-11-25T19:46:54.641Z,100084.50
2023-11-25T19:49:21.575Z,100089.63
2023-11-25T19:51:48.242Z,100101.19
2023-11-25T19:54:14.637Z,100102.66
2023-11-25T19:56:41.032Z,100114.38
2023-11-25T19:59:07.602Z,100118.25
2023-11-25T20:01:35.338Z,100119.34
2023-11-25T20:04:01.815Z,100121.19
2023-11-25T20:06:28.221Z,100121.22
2023-11-25T20:08:54.606Z,100127.88
2023-11-25T20:11:20.966Z,100139.63
2023-11-25T20:13:47.403Z,100144.84
2023-11-25T20:16:13.788Z,100147.03
2023-11-25T20:18:40.992Z,100159.06
2023-11-25T20:21:07.950Z,100158.97
2023-11-25T20:23:34.376Z,100161.88
2023-11-25T20:26:00.767Z,100157.19
2023-11-25T20:28:27.140Z,100176.00
2023-11-25T20:30:54.232Z,100178.34
2023-11-25T20:33:20.694Z,100178.00
2023-11-25T20:35:49.195Z,100188.50
2023-11-25T20:38:16.460Z,100189.00
2023-11-25T20:40:43.008Z,100190.16
2023-11-25T20:43:09.431Z,100186.94
2023-11-25T20:45:38.387Z,100187.53
2023-11-25T20:48:05.402Z,100187.25
2023-11-25T20:50:34.357Z,100190.28
2023-11-25T20:53:03.261Z,100189.53
2023-11-25T20:55:29.690Z,100191.09
2023-11-25T20:57:56.518Z,100194.84
2023-11-25T21:00:23.134Z,100195.50
2023-11-25T21:02:49.838Z,100200.03
2023-11-25T21:05:18.994Z,100206.00
2023-11-25T21:07:45.496Z,100211.56
2023-11-25T21:10:11.991Z,100219.59
2023-11-25T21:12:38.351Z,100221.59
2023-11-25T21:15:06.162Z,100216.47
2023-11-25T21:17:32.696Z,100221.63
2023-11-25T21:19:59.174Z,100228.97
2023-11-25T21:22:29.317Z,100233.28
2023-11-25T21:24:55.653Z,100245.63
2023-11-25T21:27:22.208Z,100245.06
2023-11-25T21:29:48.540Z,100239.03
2023-11-25T21:32:14.926Z,100238.28
2023-11-25T21:34:41.463Z,100244.41
2023-11-25T21:37:07.901Z,100252.00
2023-11-25T21:39:34.565Z,100250.75
2023-11-25T21:42:00.975Z,100254.69
2023-11-25T21:44:27.447Z,100254.63
2023-11-25T21:46:53.972Z,100257.72
2023-11-25T21:49:20.394Z,100250.38
2023-11-25T21:51:46.758Z,100257.75
2023-11-25T21:54:14.216Z,100262.16
2023-11-25T21:56:40.621Z,100270.34
2023-11-25T21:59:07.037Z,100273.38
2023-11-25T22:01:33.654Z,100280.25
2023-11-25T22:04:02.134Z,100282.63
2023-11-25T22:06:28.800Z,100288.47
2023-11-25T22:08:56.616Z,100285.09
2023-11-25T22:11:24.367Z,100284.56
2023-11-25T22:13:51.849Z,100292.28
2023-11-25T22:16:18.959Z,100292.63
2023-11-25T22:18:45.735Z,100291.44
2023-11-25T22:21:12.147Z,100292.97
2023-11-25T22:23:40.744Z,100299.91
2023-11-25T22:26:16.590Z,100295.22
2023-11-25T22:28:43.175Z,100291.13
2023-11-25T22:31:10.221Z,100294.34
2023-11-25T22:33:36.577Z,100302.00
2023-11-25T22:36:02.993Z,100294.69
2023-11-25T22:38:29.419Z,100301.69
2023-11-25T22:40:56.828Z,100304.59
2023-11-25T22:43:23.424Z,100307.72
2023-11-25T22:45:49.811Z,100316.94
2023-11-25T22:48:16.174Z,100309.06
2023-11-25T22:50:42.633Z,100311.50
2023-11-25T22:53:09.189Z,100303.28
2023-11-25T22:55:35.690Z,100305.09
2023-11-25T22:58:02.030Z,100312.00
2023-11-25T23:00:29.368Z,100306.94
2023-11-25T23:02:56.361Z,100305.09
2023-11-25T23:05:23.338Z,100303.38
2023-11-25T23:07:49.881Z,100306.72
2023-11-25T23:10:16.495Z,100304.94
2023-11-25T23:12:42.875Z,100304.19
2023-11-25T23:15:09.502Z,100304.03
2023-11-25T23:17:36.238Z,100301.59
2023-11-25T23:20:03.535Z,100300.53
2023-11-25T23:22:29.948Z,100309.41
2023-11-25T23:24:56.282Z,100306.47
2023-11-25T23:27:22.612Z,100308.59
2023-11-25T23:29:48.950Z,100313.41
2023-11-25T23:32:15.861Z,100320.44
2023-11-25T23:34:42.640Z,100309.38
2023-11-25T23:37:13.152Z,100322.59
2023-11-25T23:39:39.852Z,100315.84
2023-11-25T23:42:10.067Z,100322.19
2023-11-25T23:44:36.600Z,100331.38
2023-11-25T23:47:03.035Z,100329.25
2023-11-25T23:49:29.993Z,100318.94
2023-11-25T23:51:56.426Z,100318.69
2023-11-25T23:54:22.838Z,100322.19
2023-11-25T23:56:49.212Z,100322.44
2023-11-25T23:59:16.548Z,100322.16
